Time;durP1;ratioP1;P1;durP2;ratioP2;P2;SDS_P1;SDS_P2;PMS_P1;PMS_P2;Temp;Humidity;BMP_temperature;BMP_pressure;BME280_temperature;BME280_humidity;BME280_pressure;Samples;Min_cycle;Max_cycle;Signal;HPM_P1;HPM_P2
2024/01/18 00:00:58;;;;;;;26.40;13.43;;;;;;;-145.18;100.00;46910.44;5016902;28;20025;-80
2024/01/18 00:03:23;;;;;;;27.53;13.43;;;;;;;-145.18;100.00;46900.66;5000334;28;20486;-79
2024/01/18 00:05:49;;;;;;;28.20;14.03;;;;;;;-145.18;100.00;46902.63;5032839;28;20103;-79
2024/01/18 00:08:14;;;;;;;25.97;13.73;;;;;;;-145.18;100.00;46902.63;5033287;28;20040;-80
2024/01/18 00:10:39;;;;;;;24.50;13.50;;;;;;;-145.18;100.00;46902.63;5016971;28;20037;-78
2024/01/18 00:13:05;;;;;;;25.17;14.40;;;;;;;-145.18;100.00;46902.63;5033686;28;20424;-79
2024/01/18 00:15:30;;;;;;;23.27;13.73;;;;;;;-145.18;100.00;46906.53;5017357;28;20053;-79
2024/01/18 00:17:56;;;;;;;26.40;13.07;;;;;;;-145.18;100.00;46906.53;5032752;28;20517;-79
2024/01/18 00:20:23;;;;;;;24.97;13.13;;;;;;;-145.18;100.00;46908.47;5033817;28;20037;-79
2024/01/18 00:22:49;;;;;;;25.13;12.40;;;;;;;-145.18;100.00;46902.63;5033549;28;20026;-79
2024/01/18 00:25:14;;;;;;;26.27;13.50;;;;;;;-145.18;100.00;46906.53;5034143;28;20053;-80
2024/01/18 00:27:39;;;;;;;28.47;12.60;;;;;;;-145.18;100.00;46908.47;5034199;28;20048;-85
2024/01/18 00:30:05;;;;;;;24.60;13.13;;;;;;;-145.18;100.00;46908.47;5033142;28;20040;-85
2024/01/18 00:32:31;;;;;;;42.53;12.77;;;;;;;-145.18;100.00;46906.53;5016426;28;20060;-85
2024/01/18 00:34:56;;;;;;;24.20;14.47;;;;;;;-145.18;100.00;46910.44;5016435;28;20044;-86
2024/01/18 00:37:21;;;;;;;31.50;16.33;;;;;;;-145.18;100.00;46906.53;5034524;28;20029;-86
2024/01/18 00:39:47;;;;;;;33.53;15.10;;;;;;;-145.18;100.00;46912.38;5000338;28;20525;-85
2024/01/18 00:42:12;;;;;;;24.77;13.93;;;;;;;-145.18;100.00;46910.44;5034416;28;20044;-86
2024/01/18 00:44:37;;;;;;;23.13;12.23;;;;;;;-145.18;100.00;46910.44;5034213;28;20030;-86
2024/01/18 00:47:03;;;;;;;24.33;12.87;;;;;;;-145.18;100.00;46908.47;5034595;28;20034;-86
2024/01/18 00:49:28;;;;;;;27.13;13.90;;;;;;;-145.18;100.00;46906.53;5034308;28;20041;-85
2024/01/18 00:51:54;;;;;;;29.03;14.90;;;;;;;-145.18;100.00;46902.63;5016260;28;20060;-85
2024/01/18 00:54:19;;;;;;;29.57;14.77;;;;;;;-145.18;100.00;46910.44;5033690;28;20489;-86
2024/01/18 00:56:44;;;;;;;26.13;13.57;;;;;;;-145.18;100.00;46906.53;5033542;28;20036;-85
2024/01/18 00:59:10;;;;;;;27.90;13.77;;;;;;;-145.18;100.00;46906.53;5033897;28;20446;-86
2024/01/18 01:01:35;;;;;;;22.60;12.70;;;;;;;-145.18;100.00;46908.47;5033761;28;20044;-86
2024/01/18 01:04:01;;;;;;;23.63;13.13;;;;;;;-145.18;100.00;46902.63;5032549;28;20063;-85
2024/01/18 01:06:27;;;;;;;27.10;12.73;;;;;;;-145.18;100.00;46902.63;5032642;28;20030;-85
2024/01/18 01:08:52;;;;;;;27.00;13.77;;;;;;;-145.18;100.00;46910.44;5032326;28;20401;-86
2024/01/18 01:11:18;;;;;;;29.90;14.70;;;;;;;-145.18;100.00;46902.63;5034323;28;20030;-86
2024/01/18 01:13:44;;;;;;;30.17;14.13;;;;;;;-145.18;100.00;46900.66;5032614;28;20071;-85
2024/01/18 01:16:10;;;;;;;29.65;14.63;;;;;;;-145.18;100.00;46904.56;5033602;28;20399;-86
2024/01/18 01:18:36;;;;;;;27.43;14.20;;;;;;;-145.18;100.00;46902.63;5032150;28;20038;-86
2024/01/18 01:21:02;;;;;;;34.17;15.20;;;;;;;-145.18;100.00;46902.63;5032140;28;20383;-87
2024/01/18 01:23:27;;;;;;;25.67;14.23;;;;;;;-145.18;100.00;46904.56;5032462;28;20045;-86
2024/01/18 01:25:52;;;;;;;27.67;14.70;;;;;;;-145.18;100.00;46902.63;5032544;28;20482;-85
2024/01/18 01:28:18;;;;;;;23.70;13.43;;;;;;;-145.18;100.00;46906.53;5034114;28;20148;-86
2024/01/18 01:30:43;;;;;;;30.20;14.50;;;;;;;-145.18;100.00;46906.53;4999161;28;20184;-86
2024/01/18 01:33:09;;;;;;;30.00;13.70;;;;;;;-145.18;100.00;46906.53;5031699;28;20026;-86
2024/01/18 01:35:34;;;;;;;25.83;13.37;;;;;;;-145.18;100.00;46908.47;5032142;28;20466;-86
2024/01/18 01:37:59;;;;;;;30.83;14.23;;;;;;;-145.18;100.00;46904.56;5032833;28;20040;-79
2024/01/18 01:40:25;;;;;;;21.73;12.37;;;;;;;-145.18;100.00;46908.47;5032586;28;20038;-79
2024/01/18 01:42:51;;;;;;;25.90;13.60;;;;;;;-145.18;100.00;46910.44;5032434;28;20420;-79
2024/01/18 01:45:16;;;;;;;27.30;12.93;;;;;;;-145.18;100.00;46910.44;5032415;28;20057;-78
2024/01/18 01:47:41;;;;;;;25.97;12.67;;;;;;;-145.18;100.00;46912.38;5015301;28;20056;-78
2024/01/18 01:50:08;;;;;;;26.50;13.87;;;;;;;-145.18;100.00;46906.53;5032847;28;20067;-78
2024/01/18 01:52:35;;;;;;;22.13;12.75;;;;;;;-145.18;100.00;46908.47;5032149;28;20486;-79
2024/01/18 01:55:02;;;;;;;25.25;13.65;;;;;;;-145.18;100.00;46902.63;5032928;28;20029;-78
2024/01/18 01:57:28;;;;;;;28.48;12.50;;;;;;;-145.18;100.00;46906.53;5032967;28;20079;-78
2024/01/18 01:59:55;;;;;;;30.55;13.18;;;;;;;-145.18;100.00;46908.47;5033367;28;20108;-79
2024/01/18 02:02:22;;;;;;;26.98;12.65;;;;;;;-145.18;100.00;46908.47;5032400;28;20064;-79
2024/01/18 02:04:47;;;;;;;28.73;13.13;;;;;;;-145.18;100.00;46904.56;5032775;28;20096;-79
2024/01/18 02:07:13;;;;;;;21.60;12.60;;;;;;;-145.18;100.00;46908.47;5033324;28;20374;-79
2024/01/18 02:09:39;;;;;;;26.93;13.67;;;;;;;-145.18;100.00;46902.63;5016093;28;20455;-80
2024/01/18 02:12:07;;;;;;;22.23;11.77;;;;;;;-145.18;100.00;46908.47;5032147;28;20040;-79
2024/01/18 02:14:33;;;;;;;31.15;12.82;;;;;;;-145.18;100.00;46902.63;5015479;28;20037;-79
2024/01/18 02:16:58;;;;;;;21.85;11.88;;;;;;;-145.18;100.00;46902.63;5035375;28;20076;-79
2024/01/18 02:19:23;;;;;;;27.13;12.57;;;;;;;-145.18;100.00;46902.63;5035803;28;20500;-80
2024/01/18 02:21:49;;;;;;;25.97;12.70;;;;;;;-145.18;100.00;46904.56;5018624;28;20145;-78
2024/01/18 02:24:19;;;;;;;23.73;11.53;;;;;;;-145.18;100.00;46906.53;5035242;28;20079;-79
2024/01/18 02:26:45;;;;;;;24.05;11.82;;;;;;;-145.18;100.00;46904.56;5036398;28;20402;-78
2024/01/18 02:29:10;;;;;;;24.40;12.60;;;;;;;-145.18;100.00;46906.53;5036687;28;20033;-78
2024/01/18 02:31:36;;;;;;;31.43;12.77;;;;;;;-145.18;100.00;46906.53;5018629;28;20036;-78
2024/01/18 02:34:14;;;;;;;20.23;10.57;;;;;;;-145.18;100.00;46902.63;5018898;28;20569;-79
2024/01/18 02:36:40;;;;;;;25.00;11.65;;;;;;;-145.18;100.00;46906.53;5036219;28;20021;-79
2024/01/18 02:39:05;;;;;;;23.47;11.43;;;;;;;-145.18;100.00;46900.66;5035927;28;20044;-79
2024/01/18 02:41:32;;;;;;;20.70;10.67;;;;;;;-145.18;100.00;46898.72;5034623;28;20033;-79
2024/01/18 02:43:59;;;;;;;24.92;11.70;;;;;;;-145.18;100.00;46902.63;5035751;28;20041;-78
2024/01/18 02:46:24;;;;;;;24.95;11.00;;;;;;;-145.18;100.00;46908.47;5018096;28;20556;-78
2024/01/18 02:48:49;;;;;;;21.10;11.03;;;;;;;-145.18;100.00;46900.66;5036533;28;20123;-79
2024/01/18 02:51:15;;;;;;;24.90;11.37;;;;;;;-145.18;100.00;46902.63;5034589;28;20114;-79
2024/01/18 02:53:40;;;;;;;22.77;10.00;;;;;;;-145.18;100.00;46902.63;5018485;28;20477;-79
2024/01/18 02:56:05;;;;;;;25.70;10.13;;;;;;;-145.18;100.00;46904.56;5018412;28;20043;-79
2024/01/18 02:58:31;;;;;;;17.77;9.63;;;;;;;-145.18;100.00;46900.66;5017751;28;20501;-79
2024/01/18 03:00:56;;;;;;;23.90;8.17;;;;;;;-145.18;100.00;46902.63;5018613;28;20119;-79
2024/01/18 03:03:22;;;;;;;20.13;7.80;;;;;;;-145.18;100.00;46902.63;5035198;28;20030;-79
2024/01/18 03:05:47;;;;;;;18.37;7.53;;;;;;;-145.18;100.00;46900.66;5017796;28;20049;-79
2024/01/18 03:08:13;;;;;;;16.07;6.87;;;;;;;-145.18;100.00;46900.66;5018575;28;20036;-79
2024/01/18 03:10:38;;;;;;;8.90;4.27;;;;;;;-145.18;100.00;46896.75;5035530;28;20032;-79
2024/01/18 03:13:04;;;;;;;9.77;4.03;;;;;;;-145.18;100.00;46898.72;5018559;28;20061;-79
2024/01/18 03:15:29;;;;;;;11.27;4.93;;;;;;;-145.18;100.00;46892.84;5033896;28;20053;-80
2024/01/18 03:17:55;;;;;;;17.27;4.60;;;;;;;-145.18;100.00;46892.84;5035332;28;20095;-79
2024/01/18 03:20:20;;;;;;;10.70;4.03;;;;;;;-145.18;100.00;46888.94;5035313;28;20037;-79
2024/01/18 03:22:46;;;;;;;11.33;3.70;;;;;;;-145.18;100.00;46888.94;5034356;28;20041;-81
2024/01/18 03:25:12;;;;;;;8.63;3.57;;;;;;;-145.18;100.00;46887.00;5035588;28;20041;-81
2024/01/18 03:27:38;;;;;;;8.77;3.30;;;;;;;-145.18;100.00;46890.91;5033423;28;20030;-81
2024/01/18 03:30:05;;;;;;;11.50;3.67;;;;;;;-145.18;100.00;46881.13;5033632;28;20045;-81
2024/01/18 03:32:30;;;;;;;12.45;4.13;;;;;;;-145.18;100.00;46883.09;5034439;28;20374;-80
2024/01/18 03:34:55;;;;;;;8.03;3.17;;;;;;;-145.18;100.00;46883.09;5017207;28;20045;-80
2024/01/18 03:37:21;;;;;;;7.30;3.30;;;;;;;-145.18;100.00;46877.22;5033905;28;20458;-80
2024/01/18 03:39:46;;;;;;;12.23;2.67;;;;;;;-145.18;100.00;46879.19;5000664;28;20052;-80
2024/01/18 03:42:11;;;;;;;5.03;2.50;;;;;;;-145.18;100.00;46877.22;5017394;28;20061;-79
2024/01/18 03:44:37;;;;;;;10.03;2.70;;;;;;;-145.18;100.00;46873.31;5033678;28;20459;-78
2024/01/18 03:47:02;;;;;;;14.53;3.67;;;;;;;-145.18;100.00;46871.38;5017145;28;20034;-81
2024/01/18 03:49:28;;;;;;;6.43;2.73;;;;;;;-145.18;100.00;46867.44;5017085;28;20113;-80
2024/01/18 03:51:53;;;;;;;8.90;2.13;;;;;;;-145.18;100.00;46869.41;5017105;28;20113;-81
2024/01/18 03:54:18;;;;;;;10.77;2.00;;;;;;;-145.18;100.00;46867.44;5035503;28;20458;-80
2024/01/18 03:56:44;;;;;;;4.37;1.80;;;;;;;-145.18;100.00;46869.41;5033932;28;20108;-80
2024/01/18 03:59:14;;;;;;;8.90;2.50;;;;;;;-145.18;100.00;46871.38;5035107;28;20103;-79
2024/01/18 04:01:39;;;;;;;8.35;2.00;;;;;;;-145.18;100.00;46863.53;5034889;28;20075;-80
2024/01/18 04:04:04;;;;;;;3.80;2.50;;;;;;;-145.18;100.00;46865.50;5034992;28;20057;-79
2024/01/18 04:06:30;;;;;;;6.23;2.70;;;;;;;-145.18;100.00;46865.50;5035158;28;20053;-79
2024/01/18 04:08:55;;;;;;;6.40;1.70;;;;;;;-145.18;100.00;46863.53;5033996;28;20034;-79
2024/01/18 04:11:21;;;;;;;3.27;1.97;;;;;;;-145.18;100.00;46859.63;5000125;28;20041;-79
2024/01/18 04:13:47;;;;;;;10.07;3.03;;;;;;;-145.18;100.00;46855.72;5033815;28;20083;-79
2024/01/18 04:16:13;;;;;;;3.60;2.33;;;;;;;-145.18;100.00;46859.63;5034177;28;20041;-80
2024/01/18 04:18:38;;;;;;;6.23;2.10;;;;;;;-145.18;100.00;46859.63;5016395;28;20639;-79
2024/01/18 04:21:04;;;;;;;5.90;2.10;;;;;;;-145.18;100.00;46857.69;5016879;28;20026;-79
2024/01/18 04:23:29;;;;;;;8.57;2.47;;;;;;;-145.18;100.00;46859.63;5034021;28;20025;-79
2024/01/18 04:25:55;;;;;;;7.27;2.00;;;;;;;-145.18;100.00;46857.69;5034338;28;20041;-80
2024/01/18 04:28:21;;;;;;;11.23;2.00;;;;;;;-145.18;100.00;46853.78;5016207;28;20037;-78
2024/01/18 04:30:46;;;;;;;6.30;1.70;;;;;;;-145.18;100.00;46857.69;5016134;28;20041;-79
2024/01/18 04:33:12;;;;;;;8.23;2.00;;;;;;;-145.18;100.00;46859.63;5016101;28;20075;-78
2024/01/18 04:35:38;;;;;;;4.83;2.03;;;;;;;-145.18;100.00;46853.78;5032521;28;20026;-79
2024/01/18 04:38:03;;;;;;;6.53;2.30;;;;;;;-145.18;100.00;46851.81;5032989;28;20026;-79
2024/01/18 04:40:30;;;;;;;4.25;1.92;;;;;;;-145.18;100.00;46857.69;5032465;28;20490;-79
2024/01/18 04:42:55;;;;;;;9.73;2.10;;;;;;;-145.18;100.00;46855.72;5016109;28;20123;-78
2024/01/18 04:45:21;;;;;;;4.17;2.13;;;;;;;-145.18;100.00;46853.78;5032622;28;20398;-79
2024/01/18 04:47:46;;;;;;;6.27;2.47;;;;;;;-145.18;100.00;46857.69;5032585;28;20059;-79
2024/01/18 04:50:12;;;;;;;5.00;1.90;;;;;;;-145.18;100.00;46861.59;5033670;28;20033;-79
2024/01/18 04:52:37;;;;;;;6.70;2.50;;;;;;;-145.18;100.00;46857.69;5033810;28;20034;-79
2024/01/18 04:55:04;;;;;;;8.60;2.03;;;;;;;-145.18;100.00;46853.78;5032080;28;20082;-79
2024/01/18 04:57:35;;;;;;;8.52;2.47;;;;;;;-145.18;100.00;46857.69;5033343;28;20061;-79
2024/01/18 05:00:01;;;;;;;4.97;2.28;;;;;;;-145.18;100.00;46857.69;5033532;28;20034;-79
2024/01/18 05:02:26;;;;;;;3.93;2.10;;;;;;;-145.18;100.00;46859.63;5000208;28;20044;-79
2024/01/18 05:04:52;;;;;;;8.13;2.73;;;;;;;-145.18;100.00;46861.59;4999461;28;20421;-79
2024/01/18 05:07:18;;;;;;;7.67;2.43;;;;;;;-145.18;100.00;46861.59;5033270;28;20076;-85
2024/01/18 05:09:43;;;;;;;6.37;2.40;;;;;;;-145.18;100.00;46863.53;5016964;28;20266;-79
2024/01/18 05:12:09;;;;;;;8.73;3.50;;;;;;;-145.18;100.00;46863.53;5032805;28;20104;-79
2024/01/18 05:14:34;;;;;;;13.83;2.83;;;;;;;-145.18;100.00;46863.53;5015764;28;20351;-79
2024/01/18 05:17:10;;;;;;;9.77;2.57;;;;;;;-145.18;100.00;46865.50;5032748;28;20114;-79
2024/01/18 05:19:35;;;;;;;7.13;2.88;;;;;;;-145.18;100.00;46865.50;5033975;28;20038;-79
2024/01/18 05:22:01;;;;;;;7.03;2.70;;;;;;;-145.18;100.00;46867.44;4999028;28;20458;-79
2024/01/18 05:24:26;;;;;;;13.23;3.40;;;;;;;-145.18;100.00;46869.41;5032766;28;20079;-79
2024/01/18 05:26:52;;;;;;;18.03;7.60;;;;;;;-145.18;100.00;46865.50;5032712;28;20378;-79
2024/01/18 05:29:17;;;;;;;10.77;4.03;;;;;;;-145.18;100.00;46873.31;5015568;28;20061;-79
2024/01/18 05:31:42;;;;;;;11.80;3.00;;;;;;;-145.18;100.00;46867.44;4998940;28;20025;-79
2024/01/18 05:34:08;;;;;;;6.80;3.13;;;;;;;-145.18;100.00;46873.31;5033648;28;20132;-79
2024/01/18 05:36:33;;;;;;;6.90;3.03;;;;;;;-145.18;100.00;46873.31;5031805;28;20490;-79
2024/01/18 05:38:58;;;;;;;5.03;2.73;;;;;;;-145.18;100.00;46871.38;5031776;28;20061;-79
2024/01/18 05:41:24;;;;;;;7.17;3.10;;;;;;;-145.18;100.00;46863.53;5031982;28;20029;-79
2024/01/18 05:43:49;;;;;;;8.73;4.50;;;;;;;-145.18;100.00;46867.44;5033964;28;20036;-79
2024/01/18 05:46:15;;;;;;;9.63;2.47;;;;;;;-145.18;100.00;46863.53;5015432;28;20441;-78
2024/01/18 05:48:40;;;;;;;6.37;3.07;;;;;;;-145.18;100.00;46861.59;4998735;28;20120;-78
2024/01/18 05:51:06;;;;;;;7.60;2.83;;;;;;;-145.18;100.00;46863.53;5018472;28;20048;-78
2024/01/18 05:53:31;;;;;;;6.43;2.87;;;;;;;-145.18;100.00;46861.59;5036206;28;20131;-79
2024/01/18 05:55:59;;;;;;;4.87;2.83;;;;;;;-145.18;100.00;46865.50;5019020;28;20486;-78
2024/01/18 05:58:25;;;;;;;8.88;3.15;;;;;;;-145.18;100.00;46867.44;5036382;28;20470;-78
2024/01/18 06:00:51;;;;;;;5.43;2.90;;;;;;;-145.18;100.00;46869.41;5019487;28;20037;-78
2024/01/18 06:03:16;;;;;;;4.80;2.87;;;;;;;-145.18;100.00;46875.28;5036301;28;20427;-79
2024/01/18 06:05:41;;;;;;;7.80;2.97;;;;;;;-145.18;100.00;46871.38;5034724;28;20413;-79
2024/01/18 06:08:07;;;;;;;11.90;3.20;;;;;;;-145.18;100.00;46873.31;5002853;28;20045;-79
2024/01/18 06:10:33;;;;;;;7.40;2.73;;;;;;;-145.18;100.00;46875.28;5034982;28;20061;-79
2024/01/18 06:12:59;;;;;;;10.10;3.78;;;;;;;-145.18;100.00;46873.31;5018476;28;20061;-78
2024/01/18 06:15:25;;;;;;;8.13;3.23;;;;;;;-145.18;100.00;46875.28;5018830;28;20065;-79
2024/01/18 06:17:50;;;;;;;7.97;3.10;;;;;;;-145.18;100.00;46871.38;5035359;28;20470;-89
2024/01/18 06:20:15;;;;;;;7.67;3.30;;;;;;;-145.18;100.00;46869.41;5019634;28;20045;-88
2024/01/18 06:22:41;;;;;;;7.53;4.10;;;;;;;-145.18;100.00;46871.38;5019586;28;20117;-86
2024/01/18 06:25:06;;;;;;;10.80;3.30;;;;;;;-145.18;100.00;46873.31;5019198;28;20067;-89
2024/01/18 06:27:33;;;;;;;6.47;3.23;;;;;;;-145.18;100.00;46875.28;5037203;28;20032;-90
2024/01/18 06:29:59;;;;;;;6.57;3.20;;;;;;;-145.18;100.00;46871.38;5037288;28;20037;-86
2024/01/18 06:32:25;;;;;;;5.00;2.70;;;;;;;-145.18;100.00;46875.28;5038637;28;20030;-93
2024/01/18 06:34:50;;;;;;;13.60;3.40;;;;;;;-145.18;100.00;46875.28;5038144;28;20029;-87
2024/01/18 06:37:16;;;;;;;10.43;3.20;;;;;;;-145.18;100.00;46877.22;5037012;28;20041;-90
2024/01/18 06:39:42;;;;;;;5.20;2.37;;;;;;;-145.18;100.00;46883.09;5037338;28;20040;-89
2024/01/18 06:42:08;;;;;;;7.77;2.57;;;;;;;-145.18;100.00;46881.13;5037331;28;20526;-89
2024/01/18 06:44:34;;;;;;;5.50;2.70;;;;;;;-145.18;100.00;46881.13;5036823;28;20270;-90
2024/01/18 06:47:00;;;;;;;8.65;2.92;;;;;;;-145.18;100.00;46883.09;5037147;28;20255;-90
2024/01/18 06:49:26;;;;;;;8.15;3.97;;;;;;;-145.18;100.00;46881.13;5036666;28;20049;-90
2024/01/18 06:51:51;;;;;;;12.23;3.60;;;;;;;-145.18;100.00;46873.31;5038025;28;20378;-92
2024/01/18 06:54:21;;;;;;;9.20;3.53;;;;;;;-145.18;100.00;46883.09;5039298;28;20085;-90
2024/01/18 06:56:47;;;;;;;9.93;3.83;;;;;;;-145.18;100.00;46883.09;5036422;28;20026;-88
2024/01/18 06:59:14;;;;;;;7.72;3.03;;;;;;;-145.18;100.00;46883.09;5018942;28;20099;-90
2024/01/18 07:01:39;;;;;;;8.57;3.17;;;;;;;-145.18;100.00;46885.03;5036197;28;20060;-90
2024/01/18 07:04:05;;;;;;;8.27;3.50;;;;;;;-145.18;100.00;46881.13;5036573;28;20077;-86
2024/01/18 07:06:30;;;;;;;8.20;3.10;;;;;;;-145.18;100.00;46881.13;5034459;28;20091;-85
2024/01/18 07:08:56;;;;;;;8.97;3.30;;;;;;;-145.18;100.00;46883.09;5034374;28;20064;-80
2024/01/18 07:11:21;;;;;;;7.00;3.60;;;;;;;-145.18;100.00;46883.09;5035236;28;20025;-88
2024/01/18 07:13:46;;;;;;;10.63;2.70;;;;;;;-145.18;100.00;46883.09;5001712;28;20379;-87
2024/01/18 07:16:12;;;;;;;10.33;2.80;;;;;;;-145.18;100.00;46883.09;5034342;28;20083;-88
2024/01/18 07:18:37;;;;;;;5.90;3.43;;;;;;;-145.18;100.00;46883.09;5001065;28;20030;-83
2024/01/18 07:21:03;;;;;;;5.33;3.03;;;;;;;-145.18;100.00;46883.09;5034977;28;20456;-86
2024/01/18 07:23:29;;;;;;;5.23;2.80;;;;;;;-145.18;100.00;46883.09;5035110;28;20040;-91
2024/01/18 07:25:54;;;;;;;9.93;2.97;;;;;;;-145.18;100.00;46885.03;5033730;28;20040;-89
2024/01/18 07:28:19;;;;;;;5.17;2.77;;;;;;;-145.18;100.00;46883.09;5001953;28;20029;-87
2024/01/18 07:30:45;;;;;;;9.80;3.37;;;;;;;-145.18;100.00;46885.03;5017532;28;20124;-90
2024/01/18 07:33:11;;;;;;;8.88;3.63;;;;;;;-145.18;100.00;46883.09;5000710;28;20089;-89
2024/01/18 07:35:36;;;;;;;7.63;3.63;;;;;;;-145.18;100.00;46883.09;5034197;28;20192;-87
2024/01/18 07:38:01;;;;;;;10.43;3.43;;;;;;;-145.18;100.00;46883.09;5033496;28;20052;-90
2024/01/18 07:40:27;;;;;;;7.40;3.10;;;;;;;-145.18;100.00;46881.13;5035069;28;20432;-90
2024/01/18 07:42:52;;;;;;;8.10;3.57;;;;;;;-145.18;100.00;46875.28;5021985;28;20033;-87
2024/01/18 07:45:17;;;;;;;8.40;3.57;;;;;;;-145.18;100.00;46883.09;5036853;28;20115;-87
2024/01/18 07:47:44;;;;;;;8.50;4.00;;;;;;;-145.18;100.00;46881.13;5034636;28;20118;-88
2024/01/18 07:50:09;;;;;;;6.80;3.42;;;;;;;-145.18;100.00;46879.19;5033234;28;20030;-87
2024/01/18 07:52:36;;;;;;;11.73;3.77;;;;;;;-145.18;100.00;46881.13;5034654;28;20033;-87
2024/01/18 07:55:04;;;;;;;8.30;3.17;;;;;;;-145.18;100.00;46875.28;5034018;28;20037;-89
2024/01/18 07:57:30;;;;;;;7.38;3.28;;;;;;;-145.18;100.00;46873.31;5035853;28;20140;-90
2024/01/18 07:59:56;;;;;;;10.57;3.33;;;;;;;-145.18;100.00;46873.31;5019189;28;20037;-90
2024/01/18 08:02:21;;;;;;;9.52;3.55;;;;;;;-145.18;100.00;46875.28;5033795;28;20053;-89
2024/01/18 08:04:46;;;;;;;11.83;3.90;;;;;;;-145.18;100.00;46869.41;4999912;28;20060;-88
2024/01/18 08:07:12;;;;;;;6.37;2.70;;;;;;;-145.18;100.00;46863.53;5018573;28;20101;-90
2024/01/18 08:09:38;;;;;;;9.77;3.33;;;;;;;-145.18;100.00;46861.59;5000300;28;20030;-89
2024/01/18 08:12:04;;;;;;;10.90;3.50;;;;;;;-145.18;100.00;46859.63;5016119;28;20034;-88
2024/01/18 08:14:30;;;;;;;10.35;3.65;;;;;;;-145.18;100.00;46861.59;5035912;28;20037;-89
2024/01/18 08:16:55;;;;;;;9.17;4.17;;;;;;;-145.18;100.00;46863.53;5016749;28;20043;-89
2024/01/18 08:19:21;;;;;;;7.83;3.87;;;;;;;-145.18;100.00;46855.72;5034744;28;20206;-90
2024/01/18 08:21:46;;;;;;;4.77;3.40;;;;;;;-145.18;100.00;46859.63;5033674;28;20037;-88
2024/01/18 08:24:12;;;;;;;10.03;4.00;;;;;;;-145.18;100.00;46855.72;5032998;28;20049;-88
2024/01/18 08:26:38;;;;;;;10.73;3.10;;;;;;;-145.18;100.00;46855.72;5024185;28;20374;-88
2024/01/18 08:29:03;;;;;;;6.55;3.63;;;;;;;-145.18;100.00;46857.69;5032838;28;20033;-89
2024/01/18 08:31:29;;;;;;;8.47;4.07;;;;;;;-145.18;100.00;46855.72;5033279;28;20373;-89
2024/01/18 08:33:55;;;;;;;12.53;4.00;;;;;;;-145.18;100.00;46857.69;5033496;28;20041;-88
2024/01/18 08:36:20;;;;;;;7.53;4.07;;;;;;;-145.18;100.00;46857.69;5032869;28;20040;-89
2024/01/18 08:38:46;;;;;;;12.43;4.07;;;;;;;-145.18;100.00;46857.69;5016557;28;20030;-89
2024/01/18 08:41:11;;;;;;;11.33;3.83;;;;;;;-145.18;100.00;46849.88;5034820;28;20120;-90
2024/01/18 08:43:36;;;;;;;6.97;4.13;;;;;;;-145.18;100.00;46857.69;5016383;28;20045;-88
2024/01/18 08:46:06;;;;;;;8.63;5.07;;;;;;;-145.18;100.00;46851.81;5034382;28;20069;-88
2024/01/18 08:48:32;;;;;;;8.50;4.50;;;;;;;-145.18;100.00;46855.72;5034150;28;20025;-89
2024/01/18 08:50:58;;;;;;;14.03;5.20;;;;;;;-145.18;100.00;46855.72;5016447;28;20036;-88
2024/01/18 08:53:23;;;;;;;9.57;4.50;;;;;;;-145.18;100.00;46853.78;5016859;28;20060;-89
2024/01/18 08:55:48;;;;;;;12.23;4.97;;;;;;;-145.18;100.00;46851.81;5032752;28;20474;-88
2024/01/18 08:58:14;;;;;;;12.60;5.50;;;;;;;-145.18;100.00;46861.59;5016423;28;20029;-88
2024/01/18 09:00:39;;;;;;;9.20;4.67;;;;;;;-145.18;100.00;46851.81;5032705;28;20056;-89
2024/01/18 09:03:04;;;;;;;7.80;5.03;;;;;;;-145.18;100.00;46859.63;5034321;28;20382;-88
2024/01/18 09:05:30;;;;;;;11.43;5.50;;;;;;;-145.18;100.00;46861.59;5033564;28;20057;-88
2024/01/18 09:07:57;;;;;;;10.73;4.97;;;;;;;-145.18;100.00;46855.72;5033670;28;20037;-89
2024/01/18 09:10:22;;;;;;;10.88;5.95;;;;;;;-145.18;100.00;46851.81;5033652;28;20462;-88
2024/01/18 09:12:48;;;;;;;9.77;5.70;;;;;;;-145.18;100.00;46851.81;5033790;28;20037;-88
2024/01/18 09:15:14;;;;;;;14.95;5.78;;;;;;;-145.18;100.00;46855.72;5033699;28;20041;-88
2024/01/18 09:17:41;;;;;;;12.47;5.57;;;;;;;-145.18;100.00;46851.81;5033550;28;20093;-88
2024/01/18 09:20:07;;;;;;;10.05;5.28;;;;;;;-145.18;100.00;46855.72;5015899;28;20037;-83
2024/01/18 09:22:32;;;;;;;15.77;6.78;;;;;;;-145.18;100.00;46855.72;5033759;28;20048;-88
2024/01/18 09:24:58;;;;;;;17.73;6.57;;;;;;;-145.18;100.00;46849.88;5036322;28;20045;-89
2024/01/18 09:27:24;;;;;;;8.53;5.77;;;;;;;-145.18;100.00;46851.81;5039266;28;20048;-87
2024/01/18 09:29:49;;;;;;;11.50;5.97;;;;;;;-145.18;100.00;46847.91;5036841;28;20450;-88
2024/01/18 09:32:15;;;;;;;11.03;5.67;;;;;;;-145.18;100.00;46855.72;5037972;28;20033;-88
2024/01/18 09:34:41;;;;;;;8.82;5.18;;;;;;;-145.18;100.00;46851.81;5035936;28;20037;-85
2024/01/18 09:37:06;;;;;;;11.87;5.97;;;;;;;-145.18;100.00;46859.63;5018915;28;20042;-84
2024/01/18 09:39:31;;;;;;;12.50;4.73;;;;;;;-145.18;100.00;46851.81;5037800;28;20044;-85
2024/01/18 09:41:57;;;;;;;11.17;4.47;;;;;;;-145.18;100.00;46851.81;5035926;28;20117;-83
2024/01/18 09:44:24;;;;;;;8.03;4.10;;;;;;;-145.18;100.00;46855.72;5036105;28;20033;-84
2024/01/18 09:46:50;;;;;;;10.55;4.65;;;;;;;-145.18;100.00;46849.88;5035874;28;20033;-84
2024/01/18 09:49:16;;;;;;;8.30;4.90;;;;;;;-145.18;100.00;46847.91;5035986;28;20048;-85
2024/01/18 09:51:43;;;;;;;7.10;4.32;;;;;;;-145.18;100.00;46844.00;5035653;28;20540;-85
2024/01/18 09:54:09;;;;;;;6.75;4.13;;;;;;;-145.18;100.00;46847.91;5019527;28;20131;-85
2024/01/18 09:56:39;;;;;;;10.97;3.93;;;;;;;-145.18;100.00;46840.09;5036411;28;20037;-85
2024/01/18 09:59:05;;;;;;;13.25;5.13;;;;;;;-145.18;100.00;46844.00;5036664;28;20075;-85
2024/01/18 10:01:32;;;;;;;12.77;4.27;;;;;;;-145.18;100.00;46834.25;5019208;28;20050;-84
2024/01/18 10:03:57;;;;;;;10.65;4.60;;;;;;;-145.18;100.00;46830.34;5019270;28;20751;-84
2024/01/18 10:06:22;;;;;;;9.57;4.27;;;;;;;-145.18;100.00;46832.28;5019272;28;20029;-85
2024/01/18 10:08:49;;;;;;;6.63;3.87;;;;;;;-145.18;100.00;46828.38;5036848;28;20060;-84
2024/01/18 10:11:15;;;;;;;6.88;3.28;;;;;;;-145.18;100.00;46820.56;5035452;28;20029;-85
2024/01/18 10:13:51;;;;;;;8.77;3.17;;;;;;;-145.18;100.00;46822.53;5036618;28;20377;-85
2024/01/18 10:16:32;;;;;;;6.53;3.20;;;;;;;-145.18;100.00;46818.63;5036208;28;20041;-85
2024/01/18 10:19:00;;;;;;;10.73;3.00;;;;;;;-145.18;100.00;46812.75;5036266;28;20312;-85
2024/01/18 10:21:26;;;;;;;5.30;3.00;;;;;;;-145.18;100.00;46808.84;5036297;28;20309;-85
2024/01/18 10:23:53;;;;;;;11.40;3.45;;;;;;;-145.18;100.00;46804.94;5035629;28;20072;-85
2024/01/18 10:26:20;;;;;;;6.43;3.27;;;;;;;-145.18;100.00;46804.94;5036473;28;20381;-85
2024/01/18 10:28:46;;;;;;;6.80;3.60;;;;;;;-145.18;100.00;46806.91;5034928;28;20299;-84
2024/01/18 10:31:11;;;;;;;7.50;3.30;;;;;;;-145.18;100.00;46808.84;5036427;28;20285;-85
2024/01/18 10:33:37;;;;;;;10.53;3.70;;;;;;;-145.18;100.00;46797.13;5036112;28;20105;-85
2024/01/18 10:36:02;;;;;;;9.53;3.80;;;;;;;-145.18;100.00;46797.13;5035955;28;20087;-85
2024/01/18 10:38:39;;;;;;;13.87;3.70;;;;;;;-145.18;100.00;46793.22;5036751;28;20104;-85
2024/01/18 10:41:06;;;;;;;11.83;2.23;;;;;;;-145.18;100.00;46785.41;5036047;28;20037;-84
2024/01/18 10:43:33;;;;;;;14.17;2.13;;;;;;;-145.18;100.00;46775.66;5036449;28;20739;-82
2024/01/18 10:45:59;;;;;;;7.97;2.33;;;;;;;-145.18;100.00;46769.78;5036187;28;20533;-83
2024/01/18 10:48:29;;;;;;;5.53;2.23;;;;;;;-145.18;100.00;46763.91;5036360;28;20313;-84
2024/01/18 10:50:58;;;;;;;8.27;4.13;;;;;;;-145.18;100.00;46765.88;5036235;28;20300;-83
2024/01/18 10:53:24;;;;;;;13.50;1.60;;;;;;;-145.18;100.00;46754.16;5034908;28;20251;-84
2024/01/18 10:55:51;;;;;;;5.47;1.73;;;;;;;-145.18;100.00;46760.00;5035712;28;20274;-83